createdAt,value
2017-11-04T00:01:01.095Z,1010.73
2017-11-04T00:02:01.112Z,1010.7
2017-11-04T00:03:01.131Z,1010.69
2017-11-04T00:04:01.143Z,1010.69
2017-11-04T00:05:01.165Z,1010.7
2017-11-04T00:06:01.177Z,1010.67
2017-11-04T00:07:01.196Z,1010.64
2017-11-04T00:08:01.223Z,1010.65
2017-11-04T00:09:01.226Z,1010.64
2017-11-04T00:10:01.242Z,1010.65
2017-11-04T00:11:01.258Z,1010.65
2017-11-04T00:12:01.276Z,1010.66
2017-11-04T00:13:01.296Z,1010.63
2017-11-04T00:14:01.311Z,1010.61
2017-11-04T00:16:01.345Z,1010.63
2017-11-04T00:17:01.359Z,1010.59
2017-11-04T00:18:01.374Z,1010.61
2017-11-04T00:19:01.392Z,1010.63
2017-11-04T00:20:01.408Z,1010.63
2017-11-04T00:21:01.426Z,1010.57
2017-11-04T00:22:01.443Z,1010.58
2017-11-04T00:23:01.461Z,1010.55
2017-11-04T00:24:01.481Z,1010.54
2017-11-04T00:25:01.490Z,1010.55
2017-11-04T00:26:01.509Z,1010.56
2017-11-04T00:27:01.527Z,1010.53
2017-11-04T00:28:01.541Z,1010.55
2017-11-04T00:29:01.562Z,1010.52
2017-11-04T00:30:01.574Z,1010.46
2017-11-04T00:31:01.592Z,1010.51
2017-11-04T00:32:01.606Z,1010.5
2017-11-04T00:33:01.623Z,1010.46
2017-11-04T00:34:01.638Z,1010.49
2017-11-04T00:35:01.653Z,1010.5
2017-11-04T00:36:01.672Z,1010.49
2017-11-04T00:37:01.685Z,1010.5
2017-11-04T00:38:01.704Z,1010.48
2017-11-04T00:39:01.717Z,1010.52
2017-11-04T00:40:01.735Z,1010.49
2017-11-04T00:41:01.751Z,1010.49
2017-11-04T00:42:01.771Z,1010.48
2017-11-04T00:43:01.784Z,1010.47
2017-11-04T00:44:01.806Z,1010.46
2017-11-04T00:45:01.820Z,1010.44
2017-11-04T00:46:01.834Z,1010.49
2017-11-04T00:48:01.866Z,1010.51
2017-11-04T00:49:01.881Z,1010.46
2017-11-04T00:50:01.901Z,1010.44
2017-11-04T00:51:01.918Z,1010.45
2017-11-04T00:52:01.934Z,1010.43
2017-11-04T00:53:01.949Z,1010.43
2017-11-04T00:54:01.963Z,1010.41
2017-11-04T00:55:01.983Z,1010.42
2017-11-04T00:56:01.996Z,1010.42
2017-11-04T00:57:02.011Z,1010.39
2017-11-04T00:58:02.028Z,1010.43
2017-11-04T00:59:02.045Z,1010.39
2017-11-04T01:00:02.065Z,1010.42
2017-11-04T01:01:02.079Z,1010.42
2017-11-04T01:02:02.096Z,1010.4
2017-11-04T01:04:02.130Z,1010.37
2017-11-04T01:05:02.141Z,1010.38
2017-11-04T01:06:02.159Z,1010.37
2017-11-04T01:07:02.176Z,1010.35
2017-11-04T01:08:02.190Z,1010.35
2017-11-04T01:09:02.561Z,1010.35
2017-11-04T01:10:02.227Z,1010.29
2017-11-04T01:11:02.247Z,1010.3
2017-11-04T01:12:02.261Z,1010.33
2017-11-04T01:13:02.275Z,1010.28
2017-11-04T01:14:02.288Z,1010.23
2017-11-04T01:15:02.308Z,1010.24
2017-11-04T01:16:02.324Z,1010.25
2017-11-04T01:17:02.340Z,1010.19
2017-11-04T01:18:02.357Z,1010.18
2017-11-04T01:20:02.388Z,1010.16
2017-11-04T01:21:02.401Z,1010.19
2017-11-04T01:22:02.421Z,1010.21
2017-11-04T01:23:02.436Z,1010.16
2017-11-04T01:24:02.451Z,1010.16
2017-11-04T01:25:02.470Z,1010.13
2017-11-04T01:26:02.486Z,1010.1
2017-11-04T01:27:02.501Z,1010.13
2017-11-04T01:28:02.516Z,1010.1
2017-11-04T01:29:02.535Z,1010.09
2017-11-04T01:30:02.550Z,1010.09
2017-11-04T01:31:02.568Z,1010.08
2017-11-04T01:32:02.582Z,1010.05
2017-11-04T01:33:02.600Z,1010.02
2017-11-04T01:34:02.622Z,1010
2017-11-04T01:36:02.645Z,1010
2017-11-04T01:37:02.666Z,1009.98
2017-11-04T01:38:02.681Z,1010.02
2017-11-04T01:39:02.696Z,1009.99
2017-11-04T01:40:02.714Z,1010.04
2017-11-04T01:41:02.728Z,1010.01
2017-11-04T01:42:02.745Z,1010.05
2017-11-04T01:43:02.760Z,1010
2017-11-04T01:44:02.778Z,1010.02
2017-11-04T01:45:02.795Z,1010
2017-11-04T01:46:02.807Z,1010
2017-11-04T01:47:02.824Z,1009.96
2017-11-04T01:48:02.843Z,1009.96
2017-11-04T01:49:02.856Z,1009.98
2017-11-04T01:51:02.889Z,1009.96
2017-11-04T01:52:02.903Z,1009.97
2017-11-04T01:53:02.919Z,1009.91
2017-11-04T01:54:02.940Z,1009.9
2017-11-04T01:55:02.953Z,1009.91
2017-11-04T01:56:02.972Z,1009.89
2017-11-04T01:57:02.992Z,1009.9
2017-11-04T01:58:03.004Z,1009.91
2017-11-04T01:59:03.017Z,1009.84
2017-11-04T02:00:03.036Z,1009.89
2017-11-04T02:01:03.053Z,1009.89
2017-11-04T02:02:03.069Z,1009.87
2017-11-04T02:03:03.085Z,1009.89
2017-11-04T02:04:03.100Z,1009.86
2017-11-04T02:05:03.113Z,1009.86
2017-11-04T02:06:03.130Z,1009.83
2017-11-04T02:07:03.149Z,1009.83
2017-11-04T02:08:03.165Z,1009.82
2017-11-04T02:09:03.183Z,1009.82
2017-11-04T02:10:03.193Z,1009.78
2017-11-04T02:11:03.213Z,1009.76
2017-11-04T02:12:03.227Z,1009.77
2017-11-04T02:13:03.242Z,1009.77
2017-11-04T02:14:03.260Z,1009.75
2017-11-04T02:15:03.279Z,1009.74
2017-11-04T02:16:03.295Z,1009.67
2017-11-04T02:17:03.308Z,1009.74
2017-11-04T02:18:03.326Z,1009.72
2017-11-04T02:19:03.340Z,1009.72
2017-11-04T02:20:03.357Z,1009.7
2017-11-04T02:21:03.377Z,1009.71
2017-11-04T02:23:03.406Z,1009.68
2017-11-04T02:24:03.422Z,1009.66
2017-11-04T02:25:03.437Z,1009.68
2017-11-04T02:26:03.456Z,1009.64
2017-11-04T02:27:03.467Z,1009.66
2017-11-04T02:28:03.489Z,1009.63
2017-11-04T02:29:03.499Z,1009.65
2017-11-04T02:30:03.519Z,1009.65
2017-11-04T02:31:03.535Z,1009.65
2017-11-04T02:32:03.551Z,1009.66
2017-11-04T02:33:03.567Z,1009.66
2017-11-04T02:34:03.581Z,1009.64
2017-11-04T02:35:03.601Z,1009.64
2017-11-04T02:36:03.616Z,1009.66
2017-11-04T02:37:03.630Z,1009.66
2017-11-04T02:39:03.660Z,1009.66
2017-11-04T02:40:03.684Z,1009.66
2017-11-04T02:41:03.695Z,1009.69
2017-11-04T02:42:03.708Z,1009.66
2017-11-04T02:43:03.725Z,1009.63
2017-11-04T02:44:03.744Z,1009.64
2017-11-04T02:45:03.757Z,1009.62
2017-11-04T02:46:03.773Z,1009.61
2017-11-04T02:47:03.788Z,1009.62
2017-11-04T02:48:03.808Z,1009.58
2017-11-04T02:49:03.825Z,1009.54
2017-11-04T02:50:03.836Z,1009.58
2017-11-04T02:51:03.857Z,1009.51
2017-11-04T02:52:03.873Z,1009.58
2017-11-04T02:53:03.884Z,1009.58
2017-11-04T02:55:03.917Z,1009.57
2017-11-04T02:56:03.936Z,1009.56
2017-11-04T02:57:03.962Z,1009.55
2017-11-04T02:58:03.965Z,1009.56
2017-11-04T02:59:03.984Z,1009.54
2017-11-04T03:00:04.022Z,1009.55
2017-11-04T03:01:04.018Z,1009.55
2017-11-04T03:02:04.031Z,1009.54
2017-11-04T03:03:04.044Z,1009.53
2017-11-04T03:04:04.063Z,1009.51
2017-11-04T03:05:04.078Z,1009.5
2017-11-04T03:06:04.099Z,1009.52
2017-11-04T03:07:04.108Z,1009.51
2017-11-04T03:08:04.127Z,1009.52
2017-11-04T03:09:04.144Z,1009.52
2017-11-04T03:11:04.178Z,1009.51
2017-11-04T03:12:04.189Z,1009.5
2017-11-04T03:13:04.203Z,1009.48
2017-11-04T03:14:04.219Z,1009.49
2017-11-04T03:15:04.237Z,1009.47
2017-11-04T03:16:04.251Z,1009.47
2017-11-04T03:17:04.266Z,1009.5
2017-11-04T03:18:04.286Z,1009.48
2017-11-04T03:19:04.317Z,1009.45
2017-11-04T03:20:04.318Z,1009.44
2017-11-04T03:21:04.331Z,1009.49
2017-11-04T03:22:04.348Z,1009.48
2017-11-04T03:23:04.368Z,1009.46
2017-11-04T03:24:04.380Z,1009.46
2017-11-04T03:26:04.411Z,1009.45
2017-11-04T03:27:04.426Z,1009.47
2017-11-04T03:28:04.442Z,1009.47
2017-11-04T03:29:04.459Z,1009.46
2017-11-04T03:30:04.476Z,1009.45
2017-11-04T03:31:04.494Z,1009.48
2017-11-04T03:32:04.514Z,1009.49
2017-11-04T03:33:04.523Z,1009.5
2017-11-04T03:34:04.540Z,1009.47
2017-11-04T03:35:04.557Z,1009.45
2017-11-04T03:36:04.570Z,1009.45
2017-11-04T03:37:04.585Z,1009.46
2017-11-04T03:38:04.600Z,1009.48
2017-11-04T03:39:04.617Z,1009.42
2017-11-04T03:40:04.633Z,1009.4
2017-11-04T03:41:04.652Z,1009.36
2017-11-04T03:42:04.672Z,1009.39
2017-11-04T03:43:04.681Z,1009.34
2017-11-04T03:44:04.699Z,1009.33
2017-11-04T03:45:04.712Z,1009.36
2017-11-04T03:46:04.728Z,1009.34
2017-11-04T03:47:04.750Z,1009.3
2017-11-04T03:48:04.763Z,1009.32
2017-11-04T03:49:04.777Z,1009.32
2017-11-04T03:50:04.792Z,1009.31
2017-11-04T03:51:04.810Z,1009.31
2017-11-04T03:52:04.826Z,1009.25
2017-11-04T03:53:04.841Z,1009.3
2017-11-04T03:54:04.863Z,1009.31
2017-11-04T03:55:04.871Z,1009.3
2017-11-04T03:56:04.886Z,1009.29
2017-11-04T03:58:04.924Z,1009.28
2017-11-04T03:59:04.933Z,1009.31
2017-11-04T04:00:04.955Z,1009.3
2017-11-04T04:01:04.965Z,1009.3
2017-11-04T04:02:04.985Z,1009.32
2017-11-04T04:03:04.998Z,1009.28
2017-11-04T04:04:05.017Z,1009.27
2017-11-04T04:05:05.029Z,1009.29
2017-11-04T04:06:05.046Z,1009.29
2017-11-04T04:07:05.063Z,1009.29
2017-11-04T04:08:05.079Z,1009.28
2017-11-04T04:09:05.090Z,1009.26
2017-11-04T04:10:05.107Z,1009.27
2017-11-04T04:11:05.123Z,1009.25
2017-11-04T04:12:05.139Z,1009.22
2017-11-04T04:14:05.175Z,1009.19
2017-11-04T04:15:05.190Z,1009.17
2017-11-04T04:16:05.202Z,1009.2
2017-11-04T04:17:05.221Z,1009.17
2017-11-04T04:18:05.234Z,1009.2
2017-11-04T04:19:05.250Z,1009.18
2017-11-04T04:20:05.270Z,1009.16
2017-11-04T04:21:05.282Z,1009.15
2017-11-04T04:22:05.302Z,1009.14
2017-11-04T04:23:05.315Z,1009.12
2017-11-04T04:24:05.330Z,1009.13
2017-11-04T04:25:05.346Z,1009.12
2017-11-04T04:26:05.361Z,1009.11
2017-11-04T04:27:05.378Z,1009.1
2017-11-04T04:28:05.394Z,1009.12
2017-11-04T04:30:05.430Z,1009.09
2017-11-04T04:31:05.441Z,1009.12
2017-11-04T04:32:05.460Z,1009.11
2017-11-04T04:33:05.472Z,1009.11
2017-11-04T04:34:05.492Z,1009.11
2017-11-04T04:35:05.505Z,1009.07
2017-11-04T04:36:05.522Z,1009.03
2017-11-04T04:37:05.540Z,1008.94
2017-11-04T04:38:05.558Z,1009.04
2017-11-04T04:39:05.576Z,1008.99
2017-11-04T04:40:05.588Z,1008.96
2017-11-04T04:41:05.601Z,1009
2017-11-04T04:42:05.618Z,1008.95
2017-11-04T04:43:05.634Z,1008.94
2017-11-04T04:44:05.648Z,1008.98
2017-11-04T04:46:05.682Z,1008.98
2017-11-04T04:47:05.700Z,1008.96
2017-11-04T04:48:05.716Z,1008.93
2017-11-04T04:49:05.730Z,1008.97
2017-11-04T04:50:05.750Z,1008.94
2017-11-04T04:51:05.765Z,1008.96
2017-11-04T04:52:05.786Z,1008.95
2017-11-04T04:53:05.795Z,1008.96
2017-11-04T04:54:05.814Z,1008.92
2017-11-04T04:55:05.832Z,1008.91
2017-11-04T04:56:05.842Z,1008.94
2017-11-04T04:57:05.861Z,1008.92
2017-11-04T04:58:05.878Z,1008.89
2017-11-04T04:59:05.895Z,1008.92
2017-11-04T05:01:05.923Z,1008.86
2017-11-04T05:02:05.942Z,1008.88
2017-11-04T05:03:05.955Z,1008.9
2017-11-04T05:04:05.976Z,1008.85
2017-11-04T05:05:05.988Z,1008.83
2017-11-04T05:06:06.003Z,1008.82
2017-11-04T05:07:06.025Z,1008.83
2017-11-04T05:08:06.035Z,1008.79
2017-11-04T05:09:06.052Z,1008.83
2017-11-04T05:10:06.070Z,1008.78
2017-11-04T05:11:06.083Z,1008.77
2017-11-04T05:12:06.103Z,1008.72
2017-11-04T05:13:06.118Z,1008.75
2017-11-04T05:14:06.136Z,1008.7
2017-11-04T05:15:06.152Z,1008.73
2017-11-04T05:16:06.170Z,1008.71
2017-11-04T05:17:06.182Z,1008.7
2017-11-04T05:18:06.198Z,1008.66
2017-11-04T05:19:06.211Z,1008.66
2017-11-04T05:20:06.232Z,1008.67
2017-11-04T05:21:06.246Z,1008.68
2017-11-04T05:22:06.263Z,1008.66
2017-11-04T05:23:06.278Z,1008.69
2017-11-04T05:24:06.290Z,1008.66
2017-11-04T05:25:06.306Z,1008.65
2017-11-04T05:26:06.324Z,1008.6
2017-11-04T05:27:06.342Z,1008.63
2017-11-04T05:28:06.354Z,1008.61
2017-11-04T05:29:06.374Z,1008.63
2017-11-04T05:30:06.391Z,1008.63
2017-11-04T05:31:06.405Z,1008.59
2017-11-04T05:33:06.434Z,1008.66
2017-11-04T05:34:06.453Z,1008.63
2017-11-04T05:35:06.466Z,1008.66
2017-11-04T05:36:06.485Z,1008.67
2017-11-04T05:37:06.497Z,1008.66
2017-11-04T05:38:06.517Z,1008.68
2017-11-04T05:39:06.530Z,1008.66
2017-11-04T05:40:06.548Z,1008.64
2017-11-04T05:41:06.561Z,1008.68
2017-11-04T05:42:06.576Z,1008.68
2017-11-04T05:43:06.600Z,1008.68
2017-11-04T05:44:06.613Z,1008.68
2017-11-04T05:45:06.627Z,1008.65
2017-11-04T05:46:06.642Z,1008.71
2017-11-04T05:47:06.655Z,1008.72
2017-11-04T05:49:06.687Z,1008.76
2017-11-04T05:50:06.705Z,1008.76
2017-11-04T05:51:06.718Z,1008.77
2017-11-04T05:52:06.735Z,1008.74
2017-11-04T05:53:06.750Z,1008.79
2017-11-04T05:54:06.769Z,1008.77
2017-11-04T05:55:06.782Z,1008.78
2017-11-04T05:56:06.802Z,1008.79
2017-11-04T05:57:06.821Z,1008.79
2017-11-04T05:58:06.828Z,1008.8
2017-11-04T05:59:06.845Z,1008.78
2017-11-04T06:00:06.865Z,1008.8
2017-11-04T06:01:06.884Z,1008.81
2017-11-04T06:02:06.892Z,1008.77
2017-11-04T06:03:06.912Z,1008.77
2017-11-04T06:05:06.943Z,1008.8
2017-11-04T06:06:06.958Z,1008.78
2017-11-04T06:07:06.975Z,1008.74
2017-11-04T06:08:06.989Z,1008.8
2017-11-04T06:09:07.006Z,1008.8
2017-11-04T06:10:07.020Z,1008.79
2017-11-04T06:11:07.038Z,1008.79
2017-11-04T06:12:07.051Z,1008.75
2017-11-04T06:13:07.069Z,1008.76
2017-11-04T06:14:07.090Z,1008.74
2017-11-04T06:15:07.097Z,1008.69
2017-11-04T06:16:07.114Z,1008.7
2017-11-04T06:17:07.129Z,1008.71
2017-11-04T06:18:07.146Z,1008.7
2017-11-04T06:19:07.161Z,1008.71
2017-11-04T06:21:07.196Z,1008.74
2017-11-04T06:22:07.209Z,1008.75
2017-11-04T06:23:07.227Z,1008.72
2017-11-04T06:24:07.243Z,1008.72
2017-11-04T06:25:07.260Z,1008.75
2017-11-04T06:26:07.276Z,1008.75
2017-11-04T06:27:07.298Z,1008.71
2017-11-04T06:28:07.304Z,1008.76
2017-11-04T06:29:07.324Z,1008.78
2017-11-04T06:30:07.338Z,1008.73
2017-11-04T06:31:07.352Z,1008.74
2017-11-04T06:32:07.368Z,1008.74
2017-11-04T06:33:07.388Z,1008.75
2017-11-04T06:34:07.403Z,1008.79
2017-11-04T06:36:07.440Z,1008.73
2017-11-04T06:37:07.453Z,1008.74
2017-11-04T06:38:07.465Z,1008.7
2017-11-04T06:39:07.485Z,1008.73
2017-11-04T06:40:07.502Z,1008.71
2017-11-04T06:41:07.516Z,1008.75
2017-11-04T06:42:07.533Z,1008.73
2017-11-04T06:43:07.550Z,1008.71
2017-11-04T06:44:07.566Z,1008.73
2017-11-04T06:45:07.581Z,1008.75
2017-11-04T06:46:07.596Z,1008.69
2017-11-04T06:47:07.612Z,1008.73
2017-11-04T06:48:07.627Z,1008.72
2017-11-04T06:49:07.646Z,1008.7
2017-11-04T06:50:07.661Z,1008.72
2017-11-04T06:51:07.676Z,1008.7
2017-11-04T06:52:07.698Z,1008.73
2017-11-04T06:53:07.708Z,1008.69
2017-11-04T06:54:07.729Z,1008.7
2017-11-04T06:55:07.747Z,1008.68
2017-11-04T06:56:07.760Z,1008.66
2017-11-04T06:57:07.776Z,1008.72
2017-11-04T06:58:07.794Z,1008.7
2017-11-04T06:59:07.805Z,1008.68
2017-11-04T07:00:07.829Z,1008.68
2017-11-04T07:01:07.840Z,1008.66
2017-11-04T07:02:07.856Z,1008.71
2017-11-04T07:03:07.873Z,1008.67
2017-11-04T07:04:07.891Z,1008.64
2017-11-04T07:05:07.906Z,1008.67
2017-11-04T07:06:07.922Z,1008.65
2017-11-04T07:08:07.958Z,1008.62
2017-11-04T07:09:07.975Z,1008.65
2017-11-04T07:10:07.987Z,1008.66
2017-11-04T07:11:08.007Z,1008.69
2017-11-04T07:12:08.022Z,1008.64
2017-11-04T07:13:08.045Z,1008.66
2017-11-04T07:14:08.054Z,1008.68
2017-11-04T07:15:08.077Z,1008.66
2017-11-04T07:16:08.090Z,1008.67
2017-11-04T07:17:08.108Z,1008.67
2017-11-04T07:18:08.131Z,1008.67
2017-11-04T07:19:08.142Z,1008.67
2017-11-04T07:20:08.158Z,1008.64
2017-11-04T07:21:08.176Z,1008.63
2017-11-04T07:22:08.194Z,1008.61
2017-11-04T07:24:08.229Z,1008.59
2017-11-04T07:25:08.242Z,1008.62
2017-11-04T07:26:08.262Z,1008.6
2017-11-04T07:27:08.280Z,1008.63
2017-11-04T07:28:08.296Z,1008.59
2017-11-04T07:29:08.312Z,1008.57
2017-11-04T07:30:08.328Z,1008.58
2017-11-04T07:31:08.345Z,1008.59
2017-11-04T07:32:08.365Z,1008.58
2017-11-04T07:33:08.380Z,1008.61
2017-11-04T07:34:08.400Z,1008.59
2017-11-04T07:35:08.415Z,1008.57
2017-11-04T07:36:08.431Z,1008.55
2017-11-04T07:37:08.448Z,1008.52
2017-11-04T07:38:08.472Z,1008.56
2017-11-04T07:40:08.508Z,1008.55
2017-11-04T07:41:08.518Z,1008.56
2017-11-04T07:42:08.535Z,1008.56
2017-11-04T07:43:08.553Z,1008.55
2017-11-04T07:44:08.568Z,1008.47
2017-11-04T07:45:08.588Z,1008.51
2017-11-04T07:46:08.607Z,1008.51
2017-11-04T07:47:08.620Z,1008.51
2017-11-04T07:48:08.636Z,1008.48
2017-11-04T07:49:08.659Z,1008.44
2017-11-04T07:50:08.673Z,1008.44
2017-11-04T07:51:08.688Z,1008.42
2017-11-04T07:52:08.706Z,1008.45
2017-11-04T07:53:08.727Z,1008.4
2017-11-04T07:54:08.740Z,1008.4
2017-11-04T07:56:08.778Z,1008.34
2017-11-04T07:57:08.795Z,1008.37
2017-11-04T07:58:08.811Z,1008.36
2017-11-04T07:59:08.825Z,1008.34
2017-11-04T08:00:08.842Z,1008.36
2017-11-04T08:01:08.867Z,1008.35
2017-11-04T08:02:08.876Z,1008.32
2017-11-04T08:03:08.901Z,1008.38
2017-11-04T08:04:08.915Z,1008.33
2017-11-04T08:05:08.933Z,1008.38
2017-11-04T08:06:08.949Z,1008.36
2017-11-04T08:07:08.964Z,1008.37
2017-11-04T08:08:08.983Z,1008.39
2017-11-04T08:09:09.004Z,1008.33
2017-11-04T08:11:09.035Z,1008.37
2017-11-04T08:12:09.053Z,1008.35
2017-11-04T08:13:09.071Z,1008.36
2017-11-04T08:14:09.091Z,1008.33
2017-11-04T08:15:09.110Z,1008.33
2017-11-04T08:16:09.132Z,1008.33
2017-11-04T08:17:09.148Z,1008.34
2017-11-04T08:18:09.160Z,1008.36
2017-11-04T08:19:09.178Z,1008.35
2017-11-04T08:20:09.202Z,1008.37
2017-11-04T08:21:09.219Z,1008.32
2017-11-04T08:22:09.235Z,1008.33
2017-11-04T08:23:09.254Z,1008.34
2017-11-04T08:24:09.274Z,1008.29
2017-11-04T08:25:09.292Z,1008.26
2017-11-04T08:26:09.311Z,1008.28
2017-11-04T08:27:09.328Z,1008.28
2017-11-04T08:28:09.344Z,1008.24
2017-11-04T08:29:09.363Z,1008.21
2017-11-04T08:30:09.383Z,1008.22
2017-11-04T08:31:09.398Z,1008.2
2017-11-04T08:32:09.418Z,1008.18
2017-11-04T08:33:09.445Z,1008.19
2017-11-04T08:34:09.458Z,1008.21
2017-11-04T08:35:09.473Z,1008.22
2017-11-04T08:36:09.499Z,1008.17
2017-11-04T08:37:09.510Z,1008.19
2017-11-04T08:38:09.536Z,1008.17
2017-11-04T08:39:09.551Z,1008.19
2017-11-04T08:40:09.566Z,1008.14
2017-11-04T08:41:09.584Z,1008.12
2017-11-04T08:43:09.623Z,1008.08
2017-11-04T08:44:09.645Z,1008.09
2017-11-04T08:45:09.661Z,1008.12
2017-11-04T08:46:09.682Z,1008.13
2017-11-04T08:47:10.052Z,1008.16
2017-11-04T08:48:09.718Z,1008.15
2017-11-04T08:49:09.739Z,1008.16
2017-11-04T08:50:09.759Z,1008.22
2017-11-04T08:51:09.778Z,1008.24
2017-11-04T08:52:09.796Z,1008.24
2017-11-04T08:53:09.816Z,1008.28
2017-11-04T08:54:09.833Z,1008.24
2017-11-04T08:55:09.851Z,1008.24
2017-11-04T08:56:09.872Z,1008.18
2017-11-04T08:57:09.891Z,1008.2
2017-11-04T08:59:09.931Z,1008.18
2017-11-04T09:00:09.947Z,1008.17
2017-11-04T09:01:09.970Z,1008.17
2017-11-04T09:02:09.993Z,1008.17
2017-11-04T09:03:10.009Z,1008.11
2017-11-04T09:04:10.029Z,1008.12
2017-11-04T09:05:10.049Z,1008.06
2017-11-04T09:06:10.072Z,1008.11
2017-11-04T09:07:10.082Z,1008.07
2017-11-04T09:08:10.118Z,1008.07
2017-11-04T09:09:10.125Z,1008.04
2017-11-04T09:10:10.146Z,1008.06
2017-11-04T09:11:10.163Z,1008.08
2017-11-04T09:12:10.179Z,1008.07
2017-11-04T09:13:10.206Z,1008.05
2017-11-04T09:15:10.239Z,1008.08
2017-11-04T09:16:10.261Z,1008.07
2017-11-04T09:17:10.282Z,1008.09
2017-11-04T09:18:10.296Z,1008.07
2017-11-04T09:19:10.321Z,1008.05
2017-11-04T09:20:10.337Z,1008.08
2017-11-04T09:21:10.363Z,1008.11
2017-11-04T09:22:10.380Z,1008.09
2017-11-04T09:23:10.394Z,1008.06
2017-11-04T09:24:10.415Z,1008.06
2017-11-04T09:25:10.434Z,1008.08
2017-11-04T09:26:10.454Z,1008.01
2017-11-04T09:27:10.478Z,1008.02
2017-11-04T09:28:10.498Z,1008.04
2017-11-04T09:29:10.515Z,1008.04
2017-11-04T09:31:10.555Z,1007.97
2017-11-04T09:32:10.571Z,1008.03
2017-11-04T09:33:10.591Z,1008.01
2017-11-04T09:34:10.610Z,1007.96
2017-11-04T09:35:10.633Z,1007.93
2017-11-04T09:36:10.650Z,1007.94
2017-11-04T09:37:10.693Z,1007.94
2017-11-04T09:38:10.690Z,1007.92
2017-11-04T09:39:10.710Z,1007.95
2017-11-04T09:40:10.732Z,1007.94
2017-11-04T09:41:10.748Z,1007.91
2017-11-04T09:42:10.772Z,1007.92
2017-11-04T09:43:10.792Z,1007.95
2017-11-04T09:44:10.848Z,1007.96
2017-11-04T09:46:10.852Z,1007.94
2017-11-04T09:47:10.872Z,1007.9
2017-11-04T09:48:10.891Z,1007.92
2017-11-04T09:49:10.911Z,1007.88
2017-11-04T09:50:10.927Z,1007.85
2017-11-04T09:51:10.953Z,1007.85
2017-11-04T09:52:10.970Z,1007.79
2017-11-04T09:53:10.992Z,1007.81
2017-11-04T09:54:11.007Z,1007.81
2017-11-04T09:55:11.027Z,1007.82
2017-11-04T09:56:11.050Z,1007.82
2017-11-04T09:57:11.070Z,1007.79
2017-11-04T09:58:11.085Z,1007.77
2017-11-04T09:59:11.131Z,1007.74
2017-11-04T10:00:11.126Z,1007.71
2017-11-04T10:01:11.149Z,1007.69
2017-11-04T10:02:11.170Z,1007.7
2017-11-04T10:03:11.185Z,1007.68
2017-11-04T10:04:11.209Z,1007.65
2017-11-04T10:05:11.228Z,1007.61
2017-11-04T10:06:11.247Z,1007.62
2017-11-04T10:07:11.266Z,1007.6
2017-11-04T10:08:11.289Z,1007.57
2017-11-04T10:09:11.304Z,1007.61
2017-11-04T10:10:11.326Z,1007.61
2017-11-04T10:11:11.345Z,1007.59
2017-11-04T10:12:11.366Z,1007.63
2017-11-04T10:13:11.388Z,1007.61
2017-11-04T10:14:11.406Z,1007.62
2017-11-04T10:15:11.428Z,1007.61
2017-11-04T10:16:11.445Z,1007.59
2017-11-04T10:18:11.487Z,1007.57
2017-11-04T10:19:11.511Z,1007.58
2017-11-04T10:20:11.529Z,1007.57
2017-11-04T10:21:11.545Z,1007.51
2017-11-04T10:22:11.571Z,1007.52
2017-11-04T10:23:11.585Z,1007.46
2017-11-04T10:24:11.606Z,1007.46
2017-11-04T10:25:11.626Z,1007.47
2017-11-04T10:26:11.652Z,1007.49
2017-11-04T10:27:11.665Z,1007.52
2017-11-04T10:28:11.688Z,1007.48
2017-11-04T10:29:11.709Z,1007.48
2017-11-04T10:30:11.729Z,1007.45
2017-11-04T10:31:11.745Z,1007.45
2017-11-04T10:32:11.769Z,1007.47
2017-11-04T10:34:11.809Z,1007.46
2017-11-04T10:35:11.826Z,1007.47
2017-11-04T10:36:11.849Z,1007.46
2017-11-04T10:37:11.868Z,1007.45
2017-11-04T10:38:11.890Z,1007.4
2017-11-04T10:39:11.909Z,1007.42
2017-11-04T10:40:11.925Z,1007.41
2017-11-04T10:41:11.949Z,1007.38
2017-11-04T10:42:11.966Z,1007.38
2017-11-04T10:43:11.990Z,1007.3
2017-11-04T10:44:12.006Z,1007.27
2017-11-04T10:45:12.030Z,1007.27
2017-11-04T10:46:12.051Z,1007.21
2017-11-04T10:47:12.066Z,1007.19
2017-11-04T10:48:12.086Z,1007.19
2017-11-04T10:50:12.126Z,1007.16
2017-11-04T10:51:12.147Z,1007.15
2017-11-04T10:52:12.171Z,1007.15
2017-11-04T10:53:12.188Z,1007.12
2017-11-04T10:54:12.208Z,1007.11
2017-11-04T10:55:12.228Z,1007.12
2017-11-04T10:56:12.247Z,1007.1
2017-11-04T10:57:12.268Z,1007.08
2017-11-04T10:58:12.289Z,1007.06
2017-11-04T10:59:12.308Z,1007.11
2017-11-04T11:00:12.328Z,1007.12
2017-11-04T11:01:12.351Z,1007.11
2017-11-04T11:02:12.371Z,1007.13
2017-11-04T11:03:12.392Z,1007.07
2017-11-04T11:04:12.411Z,1007.05
2017-11-04T11:06:12.450Z,1007.02
2017-11-04T11:07:12.469Z,1007.06
2017-11-04T11:08:12.493Z,1007.08
2017-11-04T11:09:12.514Z,1007.04
2017-11-04T11:10:12.534Z,1007.01
2017-11-04T11:11:12.552Z,1007.03
2017-11-04T11:12:12.570Z,1007.01
2017-11-04T11:13:12.590Z,1007.02
2017-11-04T11:14:12.612Z,1006.98
2017-11-04T11:15:12.631Z,1006.99
2017-11-04T11:16:12.651Z,1006.99
2017-11-04T11:17:12.675Z,1006.98
2017-11-04T11:18:12.696Z,1006.91
2017-11-04T11:19:12.713Z,1006.9
2017-11-04T11:21:12.758Z,1006.95
2017-11-04T11:22:12.776Z,1006.88
2017-11-04T11:23:12.795Z,1006.89
2017-11-04T11:24:12.814Z,1006.92
2017-11-04T11:25:12.836Z,1006.89
2017-11-04T11:26:12.854Z,1006.85
2017-11-04T11:27:12.880Z,1006.83
2017-11-04T11:28:12.895Z,1006.84
2017-11-04T11:29:12.916Z,1006.84
2017-11-04T11:30:12.935Z,1006.81
2017-11-04T11:31:12.963Z,1006.84
2017-11-04T11:32:12.978Z,1006.78
2017-11-04T11:33:12.997Z,1006.76
2017-11-04T11:34:13.017Z,1006.76
2017-11-04T11:35:13.039Z,1006.78
2017-11-04T11:36:13.063Z,1006.79
2017-11-04T11:37:13.082Z,1006.74
2017-11-04T11:38:13.104Z,1006.68
2017-11-04T11:39:13.121Z,1006.71
2017-11-04T11:40:13.143Z,1006.7
2017-11-04T11:41:13.165Z,1006.69
2017-11-04T11:42:13.181Z,1006.7
2017-11-04T11:43:13.204Z,1006.65
2017-11-04T11:44:13.231Z,1006.67
2017-11-04T11:45:13.248Z,1006.67
2017-11-04T11:46:13.268Z,1006.64
2017-11-04T11:47:13.288Z,1006.54
2017-11-04T11:48:13.305Z,1006.55
2017-11-04T11:49:13.330Z,1006.53
2017-11-04T11:50:13.355Z,1006.5
2017-11-04T11:51:13.370Z,1006.5
2017-11-04T11:53:13.429Z,1006.44
2017-11-04T11:54:13.430Z,1006.49
2017-11-04T11:55:13.449Z,1006.48
2017-11-04T11:56:13.469Z,1006.43
2017-11-04T11:57:13.496Z,1006.42
2017-11-04T11:58:13.511Z,1006.45
2017-11-04T11:59:13.533Z,1006.44
2017-11-04T12:00:13.552Z,1006.42
2017-11-04T12:01:13.572Z,1006.43
2017-11-04T12:02:13.595Z,1006.44
2017-11-04T12:03:13.613Z,1006.4
2017-11-04T12:04:13.637Z,1006.39
2017-11-04T12:05:13.656Z,1006.34
2017-11-04T12:06:13.676Z,1006.33
2017-11-04T12:07:13.699Z,1006.32
2017-11-04T12:09:13.740Z,1006.26
2017-11-04T12:10:13.757Z,1006.24
2017-11-04T12:11:13.782Z,1006.27
2017-11-04T12:12:13.802Z,1006.23
2017-11-04T12:13:13.818Z,1006.24
2017-11-04T12:14:13.849Z,1006.19
2017-11-04T12:15:13.861Z,1006.22
2017-11-04T12:16:13.886Z,1006.15
2017-11-04T12:17:13.905Z,1006.13
2017-11-04T12:18:13.926Z,1006.16
2017-11-04T12:19:13.949Z,1006.15
2017-11-04T12:20:13.967Z,1006.13
2017-11-04T12:21:13.997Z,1006.1
2017-11-04T12:22:14.009Z,1006.14
2017-11-04T12:23:14.026Z,1006.12
2017-11-04T12:25:14.066Z,1006.15
2017-11-04T12:26:14.091Z,1006.14
2017-11-04T12:27:14.108Z,1006.08
2017-11-04T12:28:14.152Z,1006.05
2017-11-04T12:29:14.150Z,1006.05
2017-11-04T12:30:14.174Z,1006.06
2017-11-04T12:31:14.195Z,1006.03
2017-11-04T12:32:14.215Z,1006.03
2017-11-04T12:33:14.237Z,1005.98
2017-11-04T12:34:14.257Z,1005.97
2017-11-04T12:35:14.275Z,1005.98
2017-11-04T12:36:14.293Z,1005.91
2017-11-04T12:37:14.318Z,1005.95
2017-11-04T12:38:14.340Z,1005.88
2017-11-04T12:39:14.357Z,1005.89
2017-11-04T12:41:14.401Z,1005.89
2017-11-04T12:42:14.420Z,1005.84
2017-11-04T12:43:14.444Z,1005.86
2017-11-04T12:44:14.465Z,1005.84
2017-11-04T12:45:14.484Z,1005.82
2017-11-04T12:46:14.501Z,1005.88
2017-11-04T12:47:14.522Z,1005.88
2017-11-04T12:48:14.543Z,1005.78
2017-11-04T12:49:14.565Z,1005.76